Time;durP1;ratioP1;P1;durP2;ratioP2;P2;SDS_P1;SDS_P2;PMS_P1;PMS_P2;Temp;Humidity;BMP_temperature;BMP_pressure;BME280_temperature;BME280_humidity;BME280_pressure;Samples;Min_cycle;Max_cycle;Signal;HPM_P1;HPM_P2
2023/07/27 00:01:12;;;;;;;7.72;3.90;;;12.30;99.90;;;;;;5120406;28;20046;-82
2023/07/27 00:03:38;;;;;;;7.45;3.92;;;12.40;99.90;;;;;;5108308;28;20526;-82
2023/07/27 00:06:05;;;;;;;8.27;3.78;;;12.30;99.90;;;;;;5112515;28;20036;-82
2023/07/27 00:08:32;;;;;;;7.07;4.03;;;12.40;99.90;;;;;;5113144;28;20062;-81
2023/07/27 00:10:58;;;;;;;7.70;3.90;;;12.40;99.90;;;;;;5130870;28;20075;-82
2023/07/27 00:13:25;;;;;;;9.57;3.95;;;12.30;99.90;;;;;;5130103;28;20040;-82
2023/07/27 00:15:52;;;;;;;9.30;4.00;;;12.30;99.90;;;;;;5112545;28;20047;-82
2023/07/27 00:18:25;;;;;;;9.50;4.28;;;12.30;99.90;;;;;;5096126;28;20043;-82
2023/07/27 00:20:51;;;;;;;8.55;4.40;;;12.30;99.90;;;;;;5130756;27;20044;-82
2023/07/27 00:23:18;;;;;;;12.85;4.13;;;12.40;99.90;;;;;;5112428;28;20055;-82
2023/07/27 00:25:45;;;;;;;8.82;3.95;;;12.30;99.90;;;;;;5096164;28;20527;-82
2023/07/27 00:28:12;;;;;;;7.50;4.00;;;12.30;99.90;;;;;;5095669;28;20437;-83
2023/07/27 00:30:40;;;;;;;9.02;4.47;;;12.30;99.90;;;;;;5112903;28;20605;-82
2023/07/27 00:33:06;;;;;;;8.95;4.38;;;12.30;99.90;;;;;;5130158;27;20106;-82
2023/07/27 00:35:33;;;;;;;8.48;4.25;;;12.20;99.90;;;;;;5132611;27;20126;-82
2023/07/27 00:38:01;;;;;;;9.68;4.75;;;12.20;99.90;;;;;;5115563;27;20770;-82
2023/07/27 00:40:28;;;;;;;8.70;4.80;;;12.20;99.90;;;;;;5132996;27;20047;-82
2023/07/27 00:42:54;;;;;;;12.00;4.97;;;12.20;99.90;;;;;;5103551;28;20040;-82
2023/07/27 00:45:21;;;;;;;10.10;5.25;;;12.20;99.90;;;;;;5128493;28;20048;-82
2023/07/27 00:47:48;;;;;;;11.75;5.47;;;12.20;99.90;;;;;;5129414;28;20467;-81
2023/07/27 00:50:15;;;;;;;8.70;4.50;;;12.30;99.90;;;;;;5095670;28;20396;-81
2023/07/27 00:52:42;;;;;;;10.35;5.60;;;12.30;99.90;;;;;;5095582;28;20147;-81
2023/07/27 00:55:09;;;;;;;9.73;5.28;;;12.30;99.90;;;;;;5095015;28;20134;-81
2023/07/27 00:57:36;;;;;;;14.35;5.68;;;12.30;99.90;;;;;;5095482;28;20460;-82
2023/07/27 01:00:03;;;;;;;11.50;5.72;;;12.30;99.90;;;;;;5094292;28;20487;-81
2023/07/27 01:05:06;;;;;;;10.80;5.22;;;12.30;99.90;;;;;;5117873;22;20588;-81
2023/07/27 01:07:33;;;;;;;10.90;5.63;;;12.30;99.90;;;;;;5050880;28;20045;-82
2023/07/27 01:10:00;;;;;;;10.93;5.72;;;12.30;99.90;;;;;;5018334;28;20420;-81
2023/07/27 01:12:38;;;;;;;8.68;4.90;;;12.30;99.90;;;;;;5034559;28;20042;-82
2023/07/27 01:15:13;;;;;;;12.35;5.38;;;12.30;99.90;;;;;;5034783;28;20124;-82
2023/07/27 01:17:54;;;;;;;9.63;5.30;;;12.30;99.90;;;;;;5034546;28;20130;-81
2023/07/27 01:20:28;;;;;;;11.27;5.97;;;12.30;99.90;;;;;;5034275;28;20512;-82
2023/07/27 01:23:16;;;;;;;9.63;5.40;;;12.30;99.90;;;;;;5034891;28;20048;-82
2023/07/27 01:26:05;;;;;;;15.20;5.90;;;12.40;99.90;;;;;;5034526;28;20497;-82
2023/07/27 01:28:47;;;;;;;9.38;4.97;;;12.40;99.90;;;;;;5034286;28;20144;-81
2023/07/27 01:31:26;;;;;;;9.48;4.93;;;12.40;99.90;;;;;;5034162;28;20040;-82
2023/07/27 01:33:59;;;;;;;11.02;5.55;;;12.40;99.90;;;;;;5034246;28;20458;-81
2023/07/27 01:36:31;;;;;;;9.98;5.40;;;12.50;99.90;;;;;;5050255;28;20042;-82
2023/07/27 01:39:03;;;;;;;9.13;5.18;;;12.50;99.90;;;;;;5050145;28;20049;-82
2023/07/27 01:41:31;;;;;;;10.88;5.30;;;12.60;99.90;;;;;;5034094;28;20044;-82
2023/07/27 01:44:00;;;;;;;11.90;5.43;;;12.60;99.90;;;;;;5002404;28;20046;-81
2023/07/27 01:46:30;;;;;;;10.20;5.07;;;12.60;99.90;;;;;;5033797;28;20401;-81
2023/07/27 01:48:58;;;;;;;10.27;5.20;;;12.60;99.90;;;;;;5018062;28;20497;-81
2023/07/27 01:51:27;;;;;;;11.75;5.13;;;12.60;99.90;;;;;;5033881;28;20099;-81
2023/07/27 01:53:55;;;;;;;11.73;5.57;;;12.70;99.90;;;;;;5018287;28;20038;-81
2023/07/27 01:56:23;;;;;;;12.77;6.07;;;12.70;99.90;;;;;;5017485;28;20037;-82
2023/07/27 01:58:51;;;;;;;12.18;5.45;;;12.70;99.90;;;;;;5050268;28;20550;-81
2023/07/27 02:01:19;;;;;;;11.68;5.50;;;12.70;99.90;;;;;;5017294;28;20073;-81
2023/07/27 02:03:48;;;;;;;13.00;5.30;;;12.70;99.90;;;;;;5020754;28;20775;-82
2023/07/27 02:06:15;;;;;;;13.75;5.72;;;12.70;99.90;;;;;;5049817;28;20042;-82
2023/07/27 02:08:41;;;;;;;11.13;5.35;;;12.70;99.90;;;;;;5033731;28;20090;-81
2023/07/27 02:11:10;;;;;;;9.32;5.18;;;12.70;99.90;;;;;;5017264;28;20076;-81
2023/07/27 02:14:03;;;;;;;11.55;5.75;;;12.70;99.90;;;;;;5017096;28;20512;-81
2023/07/27 02:16:50;;;;;;;11.95;5.00;;;12.80;99.90;;;;;;5033494;28;20041;-82
2023/07/27 02:19:17;;;;;;;12.00;4.80;;;12.70;99.90;;;;;;5049895;28;20047;-82
2023/07/27 02:21:46;;;;;;;11.45;5.20;;;12.80;99.90;;;;;;5017374;28;20497;-82
2023/07/27 02:24:13;;;;;;;12.52;5.00;;;12.80;99.90;;;;;;5048851;28;20098;-81
2023/07/27 02:26:42;;;;;;;11.82;5.40;;;12.80;99.90;;;;;;5017064;28;20049;-81
2023/07/27 02:29:08;;;;;;;8.15;4.60;;;12.80;99.90;;;;;;5049896;28;20401;-82
2023/07/27 02:31:35;;;;;;;9.10;5.03;;;12.80;99.90;;;;;;5017274;28;20120;-82
2023/07/27 02:34:03;;;;;;;10.82;4.88;;;12.80;99.90;;;;;;5050090;28;20037;-82
2023/07/27 02:36:29;;;;;;;11.75;5.38;;;12.80;99.90;;;;;;5049735;28;20037;-83
2023/07/27 02:38:56;;;;;;;10.23;5.18;;;12.90;99.90;;;;;;5017001;28;20037;-82
2023/07/27 02:41:23;;;;;;;8.95;4.60;;;12.80;99.90;;;;;;5017036;28;20494;-83
2023/07/27 02:43:50;;;;;;;9.80;5.40;;;12.90;99.90;;;;;;5017185;28;20040;-82
2023/07/27 02:46:16;;;;;;;11.85;4.90;;;12.90;99.90;;;;;;5033399;28;20056;-83
2023/07/27 02:48:43;;;;;;;7.78;5.10;;;12.90;99.90;;;;;;5033467;28;20033;-82
2023/07/27 02:51:10;;;;;;;15.63;5.47;;;13.00;99.90;;;;;;5016854;28;20044;-82
2023/07/27 02:53:36;;;;;;;9.27;5.18;;;13.00;99.90;;;;;;5032949;28;20531;-83
2023/07/27 02:56:05;;;;;;;9.63;5.20;;;13.00;99.90;;;;;;5016995;28;20099;-82
2023/07/27 02:58:31;;;;;;;10.18;5.20;;;13.00;99.90;;;;;;5048931;28;20042;-82
2023/07/27 03:01:00;;;;;;;9.10;4.97;;;13.00;99.90;;;;;;5033125;28;20103;-82
2023/07/27 03:03:27;;;;;;;10.20;4.95;;;13.10;99.90;;;;;;5048752;28;20057;-82
2023/07/27 03:06:03;;;;;;;11.20;4.82;;;13.00;99.90;;;;;;5032981;28;20741;-82
2023/07/27 03:08:31;;;;;;;10.50;4.82;;;13.00;99.90;;;;;;5016799;28;20471;-82
2023/07/27 03:11:02;;;;;;;9.63;4.95;;;13.00;99.90;;;;;;5032783;28;20041;-82
2023/07/27 03:13:30;;;;;;;11.07;4.82;;;13.00;99.90;;;;;;5065712;28;20038;-82
2023/07/27 03:15:57;;;;;;;9.02;5.15;;;13.00;99.90;;;;;;5049377;28;20715;-82
2023/07/27 03:18:24;;;;;;;10.13;5.20;;;13.10;99.90;;;;;;5049097;28;20120;-83
2023/07/27 03:20:50;;;;;;;9.05;4.82;;;13.00;99.90;;;;;;5049120;28;20045;-82
2023/07/27 03:23:17;;;;;;;8.25;5.07;;;13.10;99.90;;;;;;5017865;28;20452;-82
2023/07/27 03:25:44;;;;;;;11.27;5.97;;;13.10;99.90;;;;;;5036024;28;20107;-82
2023/07/27 03:28:10;;;;;;;11.80;5.30;;;13.10;99.90;;;;;;5036703;28;20386;-82
2023/07/27 03:30:38;;;;;;;8.57;5.15;;;13.10;99.90;;;;;;5052831;28;20045;-83
2023/07/27 03:33:06;;;;;;;8.35;5.00;;;13.20;99.90;;;;;;5053220;28;20037;-83
2023/07/27 03:35:34;;;;;;;9.57;5.00;;;13.20;99.90;;;;;;5036176;28;20042;-82
2023/07/27 03:38:02;;;;;;;9.10;4.43;;;13.20;99.90;;;;;;5036915;28;20094;-82
2023/07/27 03:40:29;;;;;;;8.50;4.47;;;13.30;99.90;;;;;;5036219;28;20038;-82
2023/07/27 03:42:56;;;;;;;12.23;4.93;;;13.30;99.90;;;;;;5020482;28;20045;-82
2023/07/27 03:45:23;;;;;;;10.02;5.00;;;13.30;99.90;;;;;;5068701;28;20401;-82
2023/07/27 03:47:49;;;;;;;9.70;5.03;;;13.30;99.90;;;;;;5019813;28;20039;-83
2023/07/27 03:50:16;;;;;;;10.07;5.10;;;13.40;99.90;;;;;;5019923;28;20500;-83
2023/07/27 03:52:43;;;;;;;8.00;4.72;;;13.40;99.90;;;;;;5052366;28;20059;-83
2023/07/27 03:55:09;;;;;;;8.48;4.68;;;13.40;99.90;;;;;;5019977;28;20049;-82
2023/07/27 03:57:37;;;;;;;8.40;4.70;;;13.40;99.90;;;;;;5019773;28;20045;-82
2023/07/27 04:00:04;;;;;;;9.30;4.60;;;13.40;99.90;;;;;;5019517;28;20554;-82
2023/07/27 04:02:31;;;;;;;9.98;4.78;;;13.40;99.90;;;;;;5019654;28;20512;-82
2023/07/27 04:04:58;;;;;;;8.60;4.70;;;13.40;99.90;;;;;;5019251;28;20140;-82
2023/07/27 04:07:24;;;;;;;8.50;4.80;;;13.40;99.90;;;;;;5036044;28;20047;-82
2023/07/27 04:09:51;;;;;;;10.23;5.25;;;13.40;99.90;;;;;;5035941;28;20045;-82
2023/07/27 04:12:18;;;;;;;10.15;5.30;;;13.40;99.90;;;;;;5019577;28;20101;-82
2023/07/27 04:14:44;;;;;;;10.68;4.78;;;13.50;99.90;;;;;;5019305;28;20048;-82
2023/07/27 04:17:11;;;;;;;10.02;4.85;;;13.50;99.90;;;;;;5019318;28;20045;-82
2023/07/27 04:19:38;;;;;;;9.13;4.85;;;13.50;99.90;;;;;;5035265;28;20052;-82
2023/07/27 04:33:27;;;;;;;10.45;5.18;;;13.20;99.90;;;;;;4969606;29;20480;-82
2023/07/27 04:35:57;;;;;;;10.43;5.13;;;13.50;99.90;;;;;;4999001;28;20045;-82
2023/07/27 04:38:24;;;;;;;8.55;5.07;;;13.50;99.90;;;;;;5051733;28;20524;-82
2023/07/27 04:40:51;;;;;;;9.68;4.90;;;13.50;99.90;;;;;;5018843;28;20072;-82
2023/07/27 04:43:18;;;;;;;9.20;5.18;;;13.50;99.90;;;;;;5035379;28;20049;-82
2023/07/27 04:45:45;;;;;;;9.38;5.38;;;13.50;99.90;;;;;;5018801;28;20034;-82
2023/07/27 04:48:12;;;;;;;12.38;5.65;;;13.50;99.90;;;;;;5019291;28;20076;-82
2023/07/27 04:50:38;;;;;;;10.18;5.15;;;13.50;99.90;;;;;;5018623;28;20082;-82
2023/07/27 04:53:05;;;;;;;9.73;4.90;;;13.50;99.90;;;;;;5035139;28;20038;-82
2023/07/27 04:55:32;;;;;;;10.13;5.20;;;13.50;99.90;;;;;;5019013;28;20060;-82
2023/07/27 04:57:59;;;;;;;10.27;5.22;;;13.50;99.90;;;;;;5018446;28;20111;-82
2023/07/27 05:00:26;;;;;;;11.18;4.80;;;13.50;99.90;;;;;;5051248;28;20041;-82
2023/07/27 05:02:52;;;;;;;11.52;5.47;;;13.50;99.90;;;;;;5018528;28;20046;-82
2023/07/27 05:05:19;;;;;;;8.45;4.75;;;13.50;99.90;;;;;;5034665;28;20057;-82
2023/07/27 05:07:46;;;;;;;11.25;5.13;;;13.50;99.90;;;;;;5050953;28;20057;-82
2023/07/27 05:10:13;;;;;;;12.48;5.68;;;13.50;99.90;;;;;;5034895;28;20037;-82
2023/07/27 05:12:39;;;;;;;11.38;5.43;;;13.60;99.90;;;;;;5018024;28;20043;-82
2023/07/27 05:15:06;;;;;;;8.57;4.93;;;13.60;99.90;;;;;;5018524;28;20080;-82
2023/07/27 05:17:33;;;;;;;10.00;5.20;;;13.60;99.90;;;;;;5050833;28;20037;-82
2023/07/27 05:20:00;;;;;;;12.07;4.80;;;13.60;99.90;;;;;;5017958;28;20044;-82
2023/07/27 05:22:27;;;;;;;11.30;5.43;;;13.50;99.90;;;;;;5018322;28;20132;-81
2023/07/27 05:24:54;;;;;;;9.80;5.60;;;13.50;99.90;;;;;;5018499;28;20120;-82
2023/07/27 05:27:20;;;;;;;11.73;5.40;;;13.50;99.90;;;;;;5034599;28;20119;-82
2023/07/27 05:29:47;;;;;;;8.45;5.00;;;13.60;99.90;;;;;;5017820;28;20033;-81
2023/07/27 05:32:14;;;;;;;8.65;5.10;;;13.60;99.90;;;;;;5050315;28;20041;-81
2023/07/27 05:34:40;;;;;;;9.35;5.20;;;13.60;99.90;;;;;;5033992;28;20044;-81
2023/07/27 05:37:07;;;;;;;9.70;5.13;;;13.60;99.90;;;;;;5034250;28;20508;-81
2023/07/27 05:39:34;;;;;;;8.45;4.93;;;13.60;99.90;;;;;;5050276;28;20128;-81
2023/07/27 05:42:00;;;;;;;10.18;5.40;;;13.60;99.90;;;;;;5033877;28;20050;-81
2023/07/27 05:44:27;;;;;;;12.95;5.50;;;13.60;99.90;;;;;;5017720;28;20045;-81
2023/07/27 05:46:55;;;;;;;8.02;4.82;;;13.60;99.90;;;;;;5065185;28;20397;-82
2023/07/27 05:49:22;;;;;;;9.93;5.22;;;13.60;99.90;;;;;;5034086;28;20064;-81
2023/07/27 05:51:49;;;;;;;11.57;5.28;;;13.60;99.90;;;;;;5017243;28;20033;-81
2023/07/27 05:54:17;;;;;;;9.88;5.18;;;13.60;99.90;;;;;;5050255;28;20393;-81
2023/07/27 05:56:43;;;;;;;8.40;4.95;;;13.60;99.90;;;;;;5034178;28;20068;-82
2023/07/27 05:59:11;;;;;;;9.38;5.40;;;13.70;99.90;;;;;;5050269;28;20041;-81
2023/07/27 06:01:38;;;;;;;9.25;5.38;;;13.70;99.90;;;;;;5033738;28;20052;-81
2023/07/27 06:04:06;;;;;;;11.95;5.13;;;13.70;99.90;;;;;;5033275;28;20132;-82
2023/07/27 06:06:33;;;;;;;12.30;5.45;;;13.80;99.90;;;;;;5018004;28;20056;-82
2023/07/27 06:09:00;;;;;;;9.55;5.45;;;13.80;99.90;;;;;;5017577;28;20041;-82
2023/07/27 06:11:27;;;;;;;10.98;5.20;;;13.80;99.90;;;;;;5033636;28;20041;-82
2023/07/27 06:13:54;;;;;;;11.23;4.85;;;13.90;99.90;;;;;;5036180;28;20103;-82
2023/07/27 06:16:22;;;;;;;7.88;4.97;;;13.90;99.90;;;;;;5017220;28;20041;-83
2023/07/27 06:18:48;;;;;;;8.18;4.90;;;13.90;99.90;;;;;;5017146;28;20480;-82
2023/07/27 06:21:15;;;;;;;8.68;4.95;;;13.90;99.90;;;;;;5017170;28;20133;-82
2023/07/27 06:23:42;;;;;;;7.88;4.93;;;13.90;99.90;;;;;;5016942;28;20095;-82
2023/07/27 06:26:08;;;;;;;9.40;5.40;;;14.00;99.90;;;;;;5016582;28;20045;-82
2023/07/27 06:28:35;;;;;;;9.35;5.07;;;14.00;99.90;;;;;;5033319;28;20050;-82
2023/07/27 06:31:05;;;;;;;8.82;5.05;;;14.10;99.90;;;;;;5049439;28;20060;-82
2023/07/27 06:33:32;;;;;;;9.88;5.50;;;14.10;99.90;;;;;;5049468;28;20037;-82
2023/07/27 06:35:58;;;;;;;10.25;5.47;;;14.10;99.90;;;;;;5049517;28;20536;-82
2023/07/27 06:38:25;;;;;;;9.38;5.07;;;14.20;99.90;;;;;;5033098;28;20041;-82
2023/07/27 06:40:52;;;;;;;9.85;5.30;;;14.30;99.90;;;;;;5032818;28;20098;-83
2023/07/27 06:43:19;;;;;;;8.88;5.35;;;14.30;99.90;;;;;;5017102;28;20060;-82
2023/07/27 06:45:45;;;;;;;9.10;5.18;;;14.40;99.90;;;;;;5016717;28;20033;-83
2023/07/27 06:48:12;;;;;;;10.23;5.80;;;14.50;99.90;;;;;;5016485;28;20046;-83
2023/07/27 06:50:39;;;;;;;11.43;5.68;;;14.60;99.90;;;;;;5049048;28;20444;-83
2023/07/27 06:53:06;;;;;;;9.30;5.47;;;14.70;99.90;;;;;;5048917;28;20409;-78
2023/07/27 06:55:33;;;;;;;12.07;5.50;;;14.70;99.90;;;;;;5032861;28;20052;-81
2023/07/27 06:58:01;;;;;;;10.65;5.85;;;14.80;99.90;;;;;;5048411;28;20131;-78
2023/07/27 07:00:27;;;;;;;9.30;5.68;;;14.90;99.90;;;;;;5017006;28;20136;-80
2023/07/27 07:02:55;;;;;;;9.57;5.43;;;15.00;99.90;;;;;;5016401;28;20548;-80
2023/07/27 07:05:21;;;;;;;9.98;5.68;;;15.00;99.90;;;;;;5016424;28;20421;-80
2023/07/27 07:07:48;;;;;;;13.60;5.93;;;15.10;99.90;;;;;;5048934;28;20043;-78
2023/07/27 07:10:15;;;;;;;10.73;5.70;;;15.10;99.90;;;;;;5032442;28;20490;-78
2023/07/27 07:12:42;;;;;;;10.80;5.78;;;15.20;99.90;;;;;;5048982;28;20450;-79
2023/07/27 07:15:09;;;;;;;11.85;6.00;;;15.20;99.90;;;;;;5016362;28;20064;-79
2023/07/27 07:17:35;;;;;;;10.23;5.60;;;15.30;99.90;;;;;;5016761;28;20106;-79
2023/07/27 07:20:05;;;;;;;14.48;5.72;;;15.30;99.90;;;;;;5014698;28;20044;-80
2023/07/27 07:22:32;;;;;;;10.18;5.18;;;15.30;99.90;;;;;;5031653;28;20041;-80
2023/07/27 07:24:59;;;;;;;10.57;5.68;;;15.30;99.90;;;;;;5032240;28;20041;-80
2023/07/27 07:27:26;;;;;;;11.90;5.60;;;15.30;99.90;;;;;;5048968;28;20404;-80
2023/07/27 07:29:53;;;;;;;9.77;5.00;;;15.20;99.90;;;;;;5048514;28;20120;-79
2023/07/27 07:32:19;;;;;;;10.13;5.95;;;15.20;99.90;;;;;;5047714;28;20042;-80
2023/07/27 07:34:46;;;;;;;11.57;5.78;;;15.20;99.90;;;;;;5064421;28;20056;-80
2023/07/27 07:37:13;;;;;;;9.68;5.35;;;15.30;99.90;;;;;;5032619;28;20056;-79
2023/07/27 07:39:39;;;;;;;11.25;5.70;;;15.20;99.90;;;;;;5048967;28;20046;-80
2023/07/27 07:42:06;;;;;;;10.40;5.82;;;15.20;99.90;;;;;;5032053;28;20045;-79
2023/07/27 07:44:33;;;;;;;9.02;5.50;;;15.20;99.90;;;;;;5048747;28;20084;-79
2023/07/27 07:47:00;;;;;;;9.20;5.25;;;15.20;99.90;;;;;;5031693;28;20044;-80
2023/07/27 07:49:27;;;;;;;8.05;5.10;;;15.20;99.90;;;;;;5049026;28;20033;-80
2023/07/27 07:51:53;;;;;;;9.73;5.45;;;15.20;99.90;;;;;;5049918;28;20044;-80
2023/07/27 07:54:20;;;;;;;11.10;4.95;;;15.20;99.90;;;;;;5031708;28;20100;-80
2023/07/27 07:56:47;;;;;;;10.10;4.82;;;15.20;99.90;;;;;;5015958;28;20045;-80
2023/07/27 07:59:15;;;;;;;8.85;5.28;;;15.20;99.90;;;;;;5016143;28;20041;-89
2023/07/27 08:01:42;;;;;;;8.77;5.10;;;15.20;99.90;;;;;;5048443;28;20041;-86
2023/07/27 08:04:08;;;;;;;7.47;4.47;;;15.20;99.90;;;;;;5048099;28;20064;-85
2023/07/27 08:06:35;;;;;;;10.45;4.68;;;15.30;99.90;;;;;;5048581;28;20050;-85
2023/07/27 08:09:02;;;;;;;7.93;4.75;;;15.40;99.90;;;;;;5015391;28;20087;-85
2023/07/27 08:11:29;;;;;;;9.50;4.85;;;15.50;99.90;;;;;;5050981;28;20073;-86
2023/07/27 08:13:58;;;;;;;8.85;4.60;;;15.60;99.90;;;;;;5052068;28;20041;-85
2023/07/27 08:16:25;;;;;;;6.93;4.10;;;15.70;99.90;;;;;;5019528;28;20099;-85
2023/07/27 08:18:52;;;;;;;6.05;3.58;;;15.80;99.90;;;;;;5019024;28;20489;-85
2023/07/27 08:21:18;;;;;;;5.85;3.85;;;15.80;99.90;;;;;;5051511;28;20476;-85
2023/07/27 08:23:45;;;;;;;6.03;3.75;;;15.90;99.90;;;;;;5019178;28;20120;-85
2023/07/27 08:26:12;;;;;;;5.15;3.22;;;15.90;99.90;;;;;;5018982;28;20044;-85
2023/07/27 08:28:40;;;;;;;6.13;3.80;;;15.90;99.90;;;;;;5019492;28;20045;-85
2023/07/27 08:31:07;;;;;;;5.47;3.35;;;16.00;99.90;;;;;;5018397;28;20400;-85
2023/07/27 08:33:34;;;;;;;4.78;3.03;;;15.90;99.90;;;;;;5042492;28;20046;-85
2023/07/27 08:36:01;;;;;;;4.75;3.00;;;15.90;99.90;;;;;;5015652;28;20049;-85
2023/07/27 08:38:27;;;;;;;5.13;3.05;;;15.80;99.90;;;;;;5031738;28;20056;-85
2023/07/27 08:41:01;;;;;;;5.70;3.40;;;15.80;99.90;;;;;;5027595;28;20114;-84
2023/07/27 08:43:29;;;;;;;8.13;3.42;;;15.80;99.90;;;;;;5041693;28;20050;-85
2023/07/27 08:45:56;;;;;;;5.25;3.38;;;15.80;99.90;;;;;;5031322;28;20149;-85
2023/07/27 08:48:24;;;;;;;6.93;3.70;;;15.80;99.90;;;;;;5015568;28;20767;-85
2023/07/27 08:50:52;;;;;;;6.07;3.70;;;15.80;99.90;;;;;;5035519;28;20397;-84
2023/07/27 08:53:19;;;;;;;9.88;3.97;;;15.80;99.90;;;;;;5018728;28;20033;-86
2023/07/27 08:55:45;;;;;;;5.20;3.75;;;15.90;99.90;;;;;;5018957;28;20049;-86
2023/07/27 08:58:12;;;;;;;5.35;4.03;;;15.90;99.90;;;;;;5018402;28;20494;-86
2023/07/27 09:00:39;;;;;;;7.70;3.80;;;15.90;99.90;;;;;;5034636;28;20470;-87
2023/07/27 09:03:09;;;;;;;6.93;4.28;;;15.90;99.90;;;;;;5018512;28;20126;-86
2023/07/27 09:05:43;;;;;;;5.78;3.85;;;16.00;99.90;;;;;;5034964;28;20519;-86
2023/07/27 09:08:12;;;;;;;7.07;3.45;;;15.90;99.90;;;;;;5034687;28;20038;-86
2023/07/27 09:10:41;;;;;;;5.28;3.45;;;16.00;99.90;;;;;;5034847;28;20033;-86
2023/07/27 09:13:08;;;;;;;5.32;3.85;;;16.00;99.90;;;;;;5034722;28;20049;-81
2023/07/27 09:15:40;;;;;;;6.30;3.55;;;15.90;99.90;;;;;;5018180;28;20037;-81
2023/07/27 09:18:14;;;;;;;6.10;3.55;;;16.00;99.90;;;;;;5050785;28;20114;-83
2023/07/27 09:20:42;;;;;;;5.70;3.63;;;15.90;99.90;;;;;;5050235;28;20107;-81
2023/07/27 09:23:17;;;;;;;5.50;3.33;;;15.90;99.90;;;;;;5034137;28;20480;-82
2023/07/27 09:25:52;;;;;;;6.28;3.70;;;15.80;99.90;;;;;;5019715;28;20068;-82
2023/07/27 09:28:24;;;;;;;6.82;3.85;;;15.80;99.90;;;;;;5050502;28;20077;-81
2023/07/27 09:30:51;;;;;;;6.82;4.05;;;15.90;99.90;;;;;;5018557;28;20045;-82
2023/07/27 09:33:22;;;;;;;5.20;3.53;;;15.90;99.90;;;;;;5034254;28;20100;-80
2023/07/27 09:35:50;;;;;;;5.22;3.60;;;15.90;99.90;;;;;;5050951;28;20493;-82
2023/07/27 09:38:23;;;;;;;5.65;3.45;;;15.90;99.90;;;;;;5017737;28;20128;-82
2023/07/27 09:40:51;;;;;;;5.25;3.30;;;15.90;99.90;;;;;;5034626;28;20050;-80
2023/07/27 09:43:18;;;;;;;4.90;3.58;;;16.00;99.90;;;;;;5017706;28;20044;-82
2023/07/27 09:45:46;;;;;;;5.72;3.55;;;16.00;99.90;;;;;;5034198;28;20493;-78
2023/07/27 09:48:13;;;;;;;5.45;3.70;;;16.00;99.90;;;;;;5017939;28;20052;-78
2023/07/27 09:50:42;;;;;;;7.38;3.63;;;16.00;99.90;;;;;;5018173;28;20038;-81
2023/07/27 09:53:11;;;;;;;5.68;3.72;;;16.00;99.90;;;;;;5050374;28;20464;-78
2023/07/27 09:55:39;;;;;;;4.93;2.97;;;16.10;99.90;;;;;;5017835;28;20052;-80
2023/07/27 09:58:07;;;;;;;4.65;3.47;;;16.10;99.90;;;;;;5017781;28;20125;-80
2023/07/27 10:00:34;;;;;;;4.97;3.30;;;16.10;99.90;;;;;;5017524;28;20124;-81
2023/07/27 10:03:01;;;;;;;4.88;3.20;;;16.20;99.90;;;;;;5018229;28;20041;-86
2023/07/27 10:05:28;;;;;;;4.40;3.00;;;16.20;99.90;;;;;;5034192;28;20053;-88
2023/07/27 10:07:56;;;;;;;4.95;2.97;;;16.30;99.90;;;;;;5018145;28;20045;-86
2023/07/27 10:10:25;;;;;;;3.75;2.75;;;16.40;99.90;;;;;;5033925;28;20608;-86
2023/07/27 10:12:55;;;;;;;4.10;2.92;;;16.40;99.90;;;;;;5050457;28;20041;-86
2023/07/27 10:15:26;;;;;;;5.40;3.17;;;16.50;99.90;;;;;;5050594;28;20044;-86
2023/07/27 10:17:59;;;;;;;4.18;2.97;;;16.50;99.90;;;;;;5050801;28;20045;-86
2023/07/27 10:20:28;;;;;;;4.47;3.15;;;16.50;99.90;;;;;;5049991;28;20151;-87
2023/07/27 10:23:20;;;;;;;5.78;3.00;;;16.50;99.90;;;;;;5034564;28;20049;-86
2023/07/27 10:25:55;;;;;;;5.00;2.80;;;16.40;99.90;;;;;;5018541;28;20045;-87
2023/07/27 10:28:29;;;;;;;4.28;2.65;;;16.50;99.90;;;;;;5049933;28;20040;-87
2023/07/27 10:31:23;;;;;;;5.65;2.72;;;16.60;99.90;;;;;;5049769;28;20485;-87
2023/07/27 10:34:11;;;;;;;4.28;2.63;;;16.40;99.90;;;;;;5049625;28;20099;-87
2023/07/27 10:36:48;;;;;;;5.30;3.30;;;16.40;99.90;;;;;;5033743;28;20050;-86
2023/07/27 10:39:16;;;;;;;5.35;2.83;;;16.50;99.90;;;;;;5050369;28;20103;-87
2023/07/27 10:42:05;;;;;;;5.00;2.42;;;16.70;99.90;;;;;;5033521;28;20124;-87
2023/07/27 10:44:46;;;;;;;4.00;2.65;;;16.80;99.90;;;;;;5050059;28;20037;-86
2023/07/27 10:47:13;;;;;;;2.80;1.70;;;16.90;99.90;;;;;;5066965;28;20037;-86
2023/07/27 10:49:42;;;;;;;4.20;2.33;;;16.90;99.90;;;;;;5049622;28;20041;-86
2023/07/27 10:52:13;;;;;;;3.85;2.13;;;16.90;99.90;;;;;;5033695;28;20045;-86
2023/07/27 10:54:41;;;;;;;2.53;1.63;;;16.80;99.90;;;;;;5017724;28;20039;-86
2023/07/27 10:57:09;;;;;;;4.93;1.90;;;16.80;99.90;;;;;;5050176;28;20131;-86
2023/07/27 10:59:41;;;;;;;2.50;1.70;;;16.80;99.90;;;;;;5017233;28;20045;-87
2023/07/27 11:02:17;;;;;;;3.55;1.70;;;16.70;99.90;;;;;;5049806;28;20049;-87
2023/07/27 11:04:45;;;;;;;2.42;1.45;;;16.70;99.90;;;;;;5032441;28;20501;-87
2023/07/27 11:07:12;;;;;;;2.10;1.48;;;16.60;99.90;;;;;;5033549;28;20042;-86
2023/07/27 11:09:45;;;;;;;2.67;1.60;;;16.60;99.90;;;;;;5049324;28;20180;-86
2023/07/27 11:12:11;;;;;;;3.22;1.60;;;16.60;99.90;;;;;;5049662;28;20092;-86
2023/07/27 11:14:38;;;;;;;2.38;1.50;;;16.60;99.90;;;;;;5032920;28;20056;-87
2023/07/27 11:17:05;;;;;;;3.53;1.45;;;16.60;99.90;;;;;;5033360;28;20038;-87
2023/07/27 11:19:32;;;;;;;3.95;1.70;;;16.60;99.90;;;;;;5016666;28;20048;-86
2023/07/27 11:21:59;;;;;;;2.45;1.50;;;16.60;99.90;;;;;;5017140;28;20041;-87
2023/07/27 11:24:26;;;;;;;4.68;1.75;;;16.60;99.90;;;;;;5017073;28;20037;-85
2023/07/27 11:26:53;;;;;;;3.97;1.73;;;16.60;99.90;;;;;;5049505;28;20033;-86
2023/07/27 11:29:20;;;;;;;2.90;1.70;;;16.60;99.90;;;;;;5049438;28;20037;-86
2023/07/27 11:32:00;;;;;;;3.30;2.00;;;16.70;99.90;;;;;;5032714;28;20056;-86
2023/07/27 11:34:29;;;;;;;3.95;2.20;;;16.60;99.90;;;;;;5017313;28;20077;-85
2023/07/27 11:36:58;;;;;;;3.38;2.05;;;16.60;99.90;;;;;;5016669;28;20048;-85
2023/07/27 11:39:26;;;;;;;3.10;2.20;;;16.70;99.90;;;;;;5033083;28;20124;-86
2023/07/27 11:41:53;;;;;;;3.80;2.30;;;16.70;99.90;;;;;;5016366;28;20041;-86
2023/07/27 11:44:22;;;;;;;2.92;2.17;;;16.60;99.90;;;;;;5049747;28;20042;-86
2023/07/27 11:46:52;;;;;;;3.55;2.33;;;16.60;99.90;;;;;;5020408;28;20100;-86
2023/07/27 11:49:21;;;;;;;4.18;2.58;;;16.60;99.90;;;;;;5036439;28;20048;-86
2023/07/27 11:51:49;;;;;;;4.25;2.60;;;16.50;99.90;;;;;;5068697;28;20044;-86
2023/07/27 11:54:27;;;;;;;4.90;2.63;;;16.50;99.90;;;;;;5052430;28;20808;-85
2023/07/27 11:56:55;;;;;;;5.55;2.63;;;16.50;99.90;;;;;;5052485;28;20041;-86
2023/07/27 11:59:22;;;;;;;5.13;2.53;;;16.50;99.90;;;;;;5052911;28;20069;-86
2023/07/27 12:01:51;;;;;;;3.97;2.67;;;16.50;99.90;;;;;;5020019;28;20038;-86
2023/07/27 12:04:21;;;;;;;3.67;2.58;;;16.60;99.90;;;;;;5035886;28;20056;-86
2023/07/27 12:06:48;;;;;;;3.78;2.70;;;16.70;99.90;;;;;;5036247;28;20085;-86
2023/07/27 12:09:14;;;;;;;3.50;2.50;;;16.80;99.90;;;;;;5020364;28;20037;-86
2023/07/27 12:11:41;;;;;;;3.72;2.63;;;16.90;99.90;;;;;;5052392;28;20393;-86
2023/07/27 12:14:09;;;;;;;4.80;2.90;;;16.90;99.90;;;;;;5020007;28;20179;-85
2023/07/27 12:16:45;;;;;;;4.63;2.50;;;17.00;99.90;;;;;;5052175;28;20091;-86
2023/07/27 12:19:12;;;;;;;3.63;2.30;;;17.10;99.90;;;;;;5052246;28;20616;-86
2023/07/27 12:21:40;;;;;;;3.67;2.33;;;17.10;99.90;;;;;;5035472;28;20041;-86
2023/07/27 12:24:10;;;;;;;4.43;3.00;;;17.10;99.90;;;;;;5020312;28;20124;-86
2023/07/27 12:26:38;;;;;;;4.45;2.50;;;17.20;99.90;;;;;;5051892;28;20048;-85
2023/07/27 12:29:05;;;;;;;3.88;2.47;;;17.20;99.90;;;;;;5035596;28;20405;-85
2023/07/27 12:31:33;;;;;;;4.18;2.65;;;17.30;99.90;;;;;;5019664;28;20040;-86
2023/07/27 12:34:00;;;;;;;3.50;2.40;;;17.30;99.90;;;;;;5019713;28;20069;-86
2023/07/27 12:36:26;;;;;;;3.28;2.33;;;17.30;99.90;;;;;;5051817;28;20084;-86
2023/07/27 12:38:53;;;;;;;3.95;2.60;;;17.30;99.90;;;;;;5051656;28;20045;-86
2023/07/27 12:41:20;;;;;;;3.95;2.47;;;17.30;99.90;;;;;;5019410;28;20041;-86
2023/07/27 12:43:46;;;;;;;3.67;2.55;;;17.40;99.90;;;;;;5051938;28;20103;-85
2023/07/27 12:46:13;;;;;;;4.07;2.80;;;17.30;99.90;;;;;;5051742;28;20042;-86
2023/07/27 12:48:41;;;;;;;4.40;2.90;;;17.40;99.90;;;;;;5035301;28;20045;-86
2023/07/27 12:51:08;;;;;;;3.70;2.60;;;17.40;99.90;;;;;;5051740;28;20047;-86
2023/07/27 12:53:34;;;;;;;4.00;3.10;;;17.40;99.90;;;;;;5019300;28;20037;-86
2023/07/27 12:56:01;;;;;;;5.18;3.25;;;17.50;99.90;;;;;;5018131;28;20060;-86
2023/07/27 12:58:28;;;;;;;4.43;3.08;;;17.50;99.90;;;;;;5019440;28;20080;-86
2023/07/27 13:00:54;;;;;;;4.45;2.85;;;17.60;99.90;;;;;;5051031;28;20041;-87
2023/07/27 13:03:21;;;;;;;4.22;2.88;;;17.60;99.90;;;;;;5050908;28;20140;-86